sensor_id;sensor_type;location;lat;lon;timestamp;P1;durP1;ratioP1;P2;durP2;ratioP2
9970;SDS011;5026;51.494;11.974;2023-09-30T00:01:44;4.55;;;1.75;;
9970;SDS011;5026;51.494;11.974;2023-09-30T00:04:11;3.55;;;1.50;;
9970;SDS011;5026;51.494;11.974;2023-09-30T00:06:38;3.47;;;1.52;;
9970;SDS011;5026;51.494;11.974;2023-09-30T00:09:05;3.88;;;1.70;;
9970;SDS011;5026;51.494;11.974;2023-09-30T00:11:33;4.97;;;1.70;;
9970;SDS011;5026;51.494;11.974;2023-09-30T00:14:00;3.92;;;1.70;;
9970;SDS011;5026;51.494;11.974;2023-09-30T00:16:28;5.80;;;1.80;;
9970;SDS011;5026;51.494;11.974;2023-09-30T00:18:56;7.18;;;1.90;;
9970;SDS011;5026;51.494;11.974;2023-09-30T00:21:23;3.63;;;2.00;;
9970;SDS011;5026;51.494;11.974;2023-09-30T00:23:50;6.15;;;2.13;;
9970;SDS011;5026;51.494;11.974;2023-09-30T00:26:17;6.53;;;2.33;;
9970;SDS011;5026;51.494;11.974;2023-09-30T00:28:44;6.00;;;2.85;;
9970;SDS011;5026;51.494;11.974;2023-09-30T00:31:11;6.18;;;2.53;;
9970;SDS011;5026;51.494;11.974;2023-09-30T00:33:39;9.15;;;2.58;;
9970;SDS011;5026;51.494;11.974;2023-09-30T00:36:07;5.20;;;2.38;;
9970;SDS011;5026;51.494;11.974;2023-09-30T00:38:35;6.97;;;2.60;;
9970;SDS011;5026;51.494;11.974;2023-09-30T00:41:02;7.25;;;2.72;;
9970;SDS011;5026;51.494;11.974;2023-09-30T00:43:29;6.60;;;2.70;;
9970;SDS011;5026;51.494;11.974;2023-09-30T00:46:00;4.95;;;2.75;;
9970;SDS011;5026;51.494;11.974;2023-09-30T00:48:31;6.65;;;2.75;;
9970;SDS011;5026;51.494;11.974;2023-09-30T00:51:00;7.45;;;2.28;;
9970;SDS011;5026;51.494;11.974;2023-09-30T00:53:27;4.45;;;2.25;;
9970;SDS011;5026;51.494;11.974;2023-09-30T00:55:55;7.00;;;2.50;;
9970;SDS011;5026;51.494;11.974;2023-09-30T00:58:22;6.68;;;2.58;;
9970;SDS011;5026;51.494;11.974;2023-09-30T01:00:53;5.82;;;2.20;;
9970;SDS011;5026;51.494;11.974;2023-09-30T01:03:22;9.35;;;2.17;;
9970;SDS011;5026;51.494;11.974;2023-09-30T01:05:49;4.10;;;2.40;;
9970;SDS011;5026;51.494;11.974;2023-09-30T01:08:17;4.78;;;2.38;;
9970;SDS011;5026;51.494;11.974;2023-09-30T01:10:46;5.18;;;2.28;;
9970;SDS011;5026;51.494;11.974;2023-09-30T01:13:13;7.75;;;3.20;;
9970;SDS011;5026;51.494;11.974;2023-09-30T01:15:40;7.00;;;2.65;;
9970;SDS011;5026;51.494;11.974;2023-09-30T01:18:07;9.43;;;2.97;;
9970;SDS011;5026;51.494;11.974;2023-09-30T01:20:34;10.63;;;3.30;;
9970;SDS011;5026;51.494;11.974;2023-09-30T01:23:03;7.72;;;2.90;;
9970;SDS011;5026;51.494;11.974;2023-09-30T01:25:30;6.38;;;3.10;;
9970;SDS011;5026;51.494;11.974;2023-09-30T01:27:58;8.23;;;3.00;;
9970;SDS011;5026;51.494;11.974;2023-09-30T01:30:31;9.38;;;3.25;;
9970;SDS011;5026;51.494;11.974;2023-09-30T01:32:58;8.00;;;3.38;;
9970;SDS011;5026;51.494;11.974;2023-09-30T01:35:25;8.55;;;3.38;;
9970;SDS011;5026;51.494;11.974;2023-09-30T01:37:52;6.97;;;2.80;;
9970;SDS011;5026;51.494;11.974;2023-09-30T01:40:20;7.40;;;3.22;;
9970;SDS011;5026;51.494;11.974;2023-09-30T01:42:48;7.82;;;2.90;;
9970;SDS011;5026;51.494;11.974;2023-09-30T01:45:15;8.00;;;3.30;;
9970;SDS011;5026;51.494;11.974;2023-09-30T01:47:42;7.97;;;3.75;;
9970;SDS011;5026;51.494;11.974;2023-09-30T01:50:09;5.07;;;3.33;;
9970;SDS011;5026;51.494;11.974;2023-09-30T01:52:36;7.25;;;3.40;;
9970;SDS011;5026;51.494;11.974;2023-09-30T01:55:03;9.30;;;3.65;;
9970;SDS011;5026;51.494;11.974;2023-09-30T01:57:32;7.50;;;3.53;;
9970;SDS011;5026;51.494;11.974;2023-09-30T01:59:59;8.70;;;3.42;;
9970;SDS011;5026;51.494;11.974;2023-09-30T02:02:26;7.18;;;3.55;;
9970;SDS011;5026;51.494;11.974;2023-09-30T02:04:53;11.20;;;4.00;;
9970;SDS011;5026;51.494;11.974;2023-09-30T02:07:20;10.13;;;3.90;;
9970;SDS011;5026;51.494;11.974;2023-09-30T02:09:47;7.38;;;3.83;;
9970;SDS011;5026;51.494;11.974;2023-09-30T02:12:14;6.63;;;3.55;;
9970;SDS011;5026;51.494;11.974;2023-09-30T02:14:43;7.80;;;3.90;;
9970;SDS011;5026;51.494;11.974;2023-09-30T02:17:11;6.95;;;3.80;;
9970;SDS011;5026;51.494;11.974;2023-09-30T02:19:38;9.02;;;3.90;;
9970;SDS011;5026;51.494;11.974;2023-09-30T02:22:05;6.43;;;3.63;;
9970;SDS011;5026;51.494;11.974;2023-09-30T02:24:32;6.75;;;3.47;;
9970;SDS011;5026;51.494;11.974;2023-09-30T02:26:59;8.95;;;3.67;;
9970;SDS011;5026;51.494;11.974;2023-09-30T02:29:26;17.33;;;3.67;;
9970;SDS011;5026;51.494;11.974;2023-09-30T02:31:55;8.45;;;4.13;;
9970;SDS011;5026;51.494;11.974;2023-09-30T02:34:22;9.27;;;3.63;;
9970;SDS011;5026;51.494;11.974;2023-09-30T02:36:49;12.52;;;3.90;;
9970;SDS011;5026;51.494;11.974;2023-09-30T02:39:16;8.35;;;4.20;;
9970;SDS011;5026;51.494;11.974;2023-09-30T02:41:43;10.10;;;3.22;;
9970;SDS011;5026;51.494;11.974;2023-09-30T02:44:10;10.60;;;3.72;;
9970;SDS011;5026;51.494;11.974;2023-09-30T02:46:37;12.77;;;3.70;;
9970;SDS011;5026;51.494;11.974;2023-09-30T02:49:05;12.52;;;3.88;;
9970;SDS011;5026;51.494;11.974;2023-09-30T02:51:33;12.57;;;3.75;;
9970;SDS011;5026;51.494;11.974;2023-09-30T02:54:00;12.48;;;3.53;;
9970;SDS011;5026;51.494;11.974;2023-09-30T02:56:27;14.63;;;3.67;;
9970;SDS011;5026;51.494;11.974;2023-09-30T02:58:55;9.50;;;3.30;;
9970;SDS011;5026;51.494;11.974;2023-09-30T03:01:22;8.57;;;3.53;;
9970;SDS011;5026;51.494;11.974;2023-09-30T03:03:49;10.57;;;3.75;;
9970;SDS011;5026;51.494;11.974;2023-09-30T03:06:18;12.95;;;3.50;;
9970;SDS011;5026;51.494;11.974;2023-09-30T03:08:44;15.90;;;3.53;;
9970;SDS011;5026;51.494;11.974;2023-09-30T03:11:11;9.52;;;3.25;;
9970;SDS011;5026;51.494;11.974;2023-09-30T03:13:39;16.92;;;3.63;;
9970;SDS011;5026;51.494;11.974;2023-09-30T03:16:07;10.77;;;3.55;;
9970;SDS011;5026;51.494;11.974;2023-09-30T03:18:34;6.88;;;3.20;;
9970;SDS011;5026;51.494;11.974;2023-09-30T03:21:01;9.45;;;3.75;;
9970;SDS011;5026;51.494;11.974;2023-09-30T03:23:34;13.30;;;3.72;;
9970;SDS011;5026;51.494;11.974;2023-09-30T03:26:03;9.13;;;3.33;;
9970;SDS011;5026;51.494;11.974;2023-09-30T03:28:34;12.55;;;3.35;;
9970;SDS011;5026;51.494;11.974;2023-09-30T03:31:01;8.57;;;3.20;;
9970;SDS011;5026;51.494;11.974;2023-09-30T03:33:29;8.63;;;2.92;;
9970;SDS011;5026;51.494;11.974;2023-09-30T03:35:55;12.73;;;3.72;;
9970;SDS011;5026;51.494;11.974;2023-09-30T03:38:23;11.65;;;3.47;;
9970;SDS011;5026;51.494;11.974;2023-09-30T03:40:52;13.13;;;3.22;;
9970;SDS011;5026;51.494;11.974;2023-09-30T03:43:19;13.75;;;3.88;;
9970;SDS011;5026;51.494;11.974;2023-09-30T03:45:48;11.73;;;3.38;;
9970;SDS011;5026;51.494;11.974;2023-09-30T03:48:15;11.85;;;3.47;;
9970;SDS011;5026;51.494;11.974;2023-09-30T03:50:44;7.28;;;2.90;;
9970;SDS011;5026;51.494;11.974;2023-09-30T03:53:11;8.95;;;3.28;;
9970;SDS011;5026;51.494;11.974;2023-09-30T03:55:38;10.63;;;3.47;;
9970;SDS011;5026;51.494;11.974;2023-09-30T03:58:07;9.20;;;3.38;;
9970;SDS011;5026;51.494;11.974;2023-09-30T04:00:34;11.77;;;3.20;;
9970;SDS011;5026;51.494;11.974;2023-09-30T04:03:01;10.52;;;3.15;;
9970;SDS011;5026;51.494;11.974;2023-09-30T04:05:28;11.20;;;3.03;;
9970;SDS011;5026;51.494;11.974;2023-09-30T04:07:57;13.70;;;3.22;;
9970;SDS011;5026;51.494;11.974;2023-09-30T04:10:24;9.50;;;3.33;;
9970;SDS011;5026;51.494;11.974;2023-09-30T04:12:51;10.52;;;3.13;;
9970;SDS011;5026;51.494;11.974;2023-09-30T04:15:19;13.80;;;4.18;;
9970;SDS011;5026;51.494;11.974;2023-09-30T04:17:47;13.02;;;3.80;;
9970;SDS011;5026;51.494;11.974;2023-09-30T04:20:15;12.75;;;3.60;;
9970;SDS011;5026;51.494;11.974;2023-09-30T04:22:48;9.20;;;2.97;;
9970;SDS011;5026;51.494;11.974;2023-09-30T04:25:16;10.25;;;2.83;;
9970;SDS011;5026;51.494;11.974;2023-09-30T04:27:43;12.27;;;2.83;;
9970;SDS011;5026;51.494;11.974;2023-09-30T04:30:13;12.48;;;3.45;;
9970;SDS011;5026;51.494;11.974;2023-09-30T04:32:41;13.13;;;3.45;;
9970;SDS011;5026;51.494;11.974;2023-09-30T04:35:08;8.18;;;3.17;;
9970;SDS011;5026;51.494;11.974;2023-09-30T04:37:36;10.68;;;3.55;;
9970;SDS011;5026;51.494;11.974;2023-09-30T04:40:04;8.73;;;2.78;;
9970;SDS011;5026;51.494;11.974;2023-09-30T04:42:40;10.18;;;2.63;;
9970;SDS011;5026;51.494;11.974;2023-09-30T04:45:09;12.32;;;3.50;;
9970;SDS011;5026;51.494;11.974;2023-09-30T04:47:37;14.27;;;3.58;;
9970;SDS011;5026;51.494;11.974;2023-09-30T04:50:07;11.43;;;2.85;;
9970;SDS011;5026;51.494;11.974;2023-09-30T04:52:35;10.95;;;3.47;;
9970;SDS011;5026;51.494;11.974;2023-09-30T04:55:02;9.43;;;3.28;;
9970;SDS011;5026;51.494;11.974;2023-09-30T04:57:29;11.10;;;3.80;;
9970;SDS011;5026;51.494;11.974;2023-09-30T04:59:57;11.43;;;3.65;;
9970;SDS011;5026;51.494;11.974;2023-09-30T05:02:24;9.38;;;3.95;;
9970;SDS011;5026;51.494;11.974;2023-09-30T05:04:52;12.73;;;2.95;;
9970;SDS011;5026;51.494;11.974;2023-09-30T05:07:21;12.10;;;3.88;;
9970;SDS011;5026;51.494;11.974;2023-09-30T05:09:47;11.75;;;3.42;;
9970;SDS011;5026;51.494;11.974;2023-09-30T05:12:14;9.80;;;3.60;;
9970;SDS011;5026;51.494;11.974;2023-09-30T05:14:42;11.20;;;3.10;;
9970;SDS011;5026;51.494;11.974;2023-09-30T05:17:09;10.85;;;3.10;;
9970;SDS011;5026;51.494;11.974;2023-09-30T05:19:37;10.02;;;3.25;;
9970;SDS011;5026;51.494;11.974;2023-09-30T05:22:04;10.60;;;3.22;;
9970;SDS011;5026;51.494;11.974;2023-09-30T05:24:32;14.70;;;3.63;;
9970;SDS011;5026;51.494;11.974;2023-09-30T05:27:00;7.68;;;2.47;;
9970;SDS011;5026;51.494;11.974;2023-09-30T05:29:27;13.70;;;2.97;;
9970;SDS011;5026;51.494;11.974;2023-09-30T05:31:54;12.65;;;3.90;;
9970;SDS011;5026;51.494;11.974;2023-09-30T05:34:22;8.23;;;2.85;;
9970;SDS011;5026;51.494;11.974;2023-09-30T05:36:49;11.43;;;2.90;;
9970;SDS011;5026;51.494;11.974;2023-09-30T05:39:16;8.63;;;2.88;;
9970;SDS011;5026;51.494;11.974;2023-09-30T05:41:46;6.90;;;2.75;;
9970;SDS011;5026;51.494;11.974;2023-09-30T05:44:13;9.63;;;3.20;;
9970;SDS011;5026;51.494;11.974;2023-09-30T05:46:40;12.70;;;3.05;;
9970;SDS011;5026;51.494;11.974;2023-09-30T05:49:08;9.95;;;3.00;;
9970;SDS011;5026;51.494;11.974;2023-09-30T05:51:38;8.30;;;3.03;;
9970;SDS011;5026;51.494;11.974;2023-09-30T05:54:05;11.40;;;3.05;;
9970;SDS011;5026;51.494;11.974;2023-09-30T05:56:34;19.73;;;3.70;;
9970;SDS011;5026;51.494;11.974;2023-09-30T05:59:03;8.48;;;2.88;;
9970;SDS011;5026;51.494;11.974;2023-09-30T06:01:31;10.02;;;2.80;;
9970;SDS011;5026;51.494;11.974;2023-09-30T06:03:58;11.00;;;2.67;;
9970;SDS011;5026;51.494;11.974;2023-09-30T06:06:26;11.80;;;2.75;;
9970;SDS011;5026;51.494;11.974;2023-09-30T06:08:54;7.90;;;2.58;;
9970;SDS011;5026;51.494;11.974;2023-09-30T06:11:23;6.35;;;3.22;;
9970;SDS011;5026;51.494;11.974;2023-09-30T06:13:50;8.40;;;3.05;;
9970;SDS011;5026;51.494;11.974;2023-09-30T06:16:19;7.15;;;2.67;;
9970;SDS011;5026;51.494;11.974;2023-09-30T06:18:46;11.63;;;3.15;;
9970;SDS011;5026;51.494;11.974;2023-09-30T06:21:14;12.55;;;3.42;;
9970;SDS011;5026;51.494;11.974;2023-09-30T06:23:43;6.95;;;2.53;;
9970;SDS011;5026;51.494;11.974;2023-09-30T06:26:10;7.60;;;3.08;;
9970;SDS011;5026;51.494;11.974;2023-09-30T06:28:36;10.43;;;3.45;;
9970;SDS011;5026;51.494;11.974;2023-09-30T06:31:06;7.13;;;2.65;;
9970;SDS011;5026;51.494;11.974;2023-09-30T06:33:34;7.40;;;2.85;;
9970;SDS011;5026;51.494;11.974;2023-09-30T06:36:01;5.75;;;2.85;;
9970;SDS011;5026;51.494;11.974;2023-09-30T06:38:29;9.00;;;3.13;;
9970;SDS011;5026;51.494;11.974;2023-09-30T06:40:56;8.75;;;2.80;;
9970;SDS011;5026;51.494;11.974;2023-09-30T06:43:22;6.95;;;2.88;;
9970;SDS011;5026;51.494;11.974;2023-09-30T06:45:49;7.13;;;2.55;;
9970;SDS011;5026;51.494;11.974;2023-09-30T06:48:16;11.05;;;3.17;;
9970;SDS011;5026;51.494;11.974;2023-09-30T06:50:45;9.15;;;3.08;;
9970;SDS011;5026;51.494;11.974;2023-09-30T06:53:13;6.97;;;2.75;;
9970;SDS011;5026;51.494;11.974;2023-09-30T06:55:41;14.55;;;2.88;;
9970;SDS011;5026;51.494;11.974;2023-09-30T06:58:08;8.82;;;3.00;;
9970;SDS011;5026;51.494;11.974;2023-09-30T07:00:36;6.75;;;3.03;;
9970;SDS011;5026;51.494;11.974;2023-09-30T07:03:03;6.35;;;2.65;;
9970;SDS011;5026;51.494;11.974;2023-09-30T07:05:30;9.32;;;3.25;;
9970;SDS011;5026;51.494;11.974;2023-09-30T07:07:59;8.65;;;3.97;;
9970;SDS011;5026;51.494;11.974;2023-09-30T07:10:26;10.80;;;4.28;;
9970;SDS011;5026;51.494;11.974;2023-09-30T07:12:54;7.85;;;3.38;;
9970;SDS011;5026;51.494;11.974;2023-09-30T07:15:21;8.27;;;3.00;;
9970;SDS011;5026;51.494;11.974;2023-09-30T07:17:48;7.93;;;2.88;;
9970;SDS011;5026;51.494;11.974;2023-09-30T07:20:15;9.32;;;3.20;;
9970;SDS011;5026;51.494;11.974;2023-09-30T07:22:42;4.72;;;2.47;;
9970;SDS011;5026;51.494;11.974;2023-09-30T07:25:11;5.15;;;2.28;;
9970;SDS011;5026;51.494;11.974;2023-09-30T07:27:39;10.52;;;2.83;;
9970;SDS011;5026;51.494;11.974;2023-09-30T07:30:07;4.10;;;2.15;;
9970;SDS011;5026;51.494;11.974;2023-09-30T07:32:34;7.80;;;3.30;;
9970;SDS011;5026;51.494;11.974;2023-09-30T07:35:01;8.93;;;3.20;;
9970;SDS011;5026;51.494;11.974;2023-09-30T07:37:29;13.07;;;4.10;;
9970;SDS011;5026;51.494;11.974;2023-09-30T07:39:55;9.93;;;4.18;;
9970;SDS011;5026;51.494;11.974;2023-09-30T07:42:24;7.95;;;3.15;;
9970;SDS011;5026;51.494;11.974;2023-09-30T07:44:51;9.85;;;3.50;;
9970;SDS011;5026;51.494;11.974;2023-09-30T07:47:18;10.73;;;2.83;;
9970;SDS011;5026;51.494;11.974;2023-09-30T07:49:45;8.30;;;3.03;;
9970;SDS011;5026;51.494;11.974;2023-09-30T07:52:12;10.95;;;3.20;;
9970;SDS011;5026;51.494;11.974;2023-09-30T07:54:39;8.35;;;3.00;;
9970;SDS011;5026;51.494;11.974;2023-09-30T07:57:06;7.63;;;3.03;;
9970;SDS011;5026;51.494;11.974;2023-09-30T07:59:34;8.45;;;3.20;;
9970;SDS011;5026;51.494;11.974;2023-09-30T08:02:01;10.75;;;3.28;;
9970;SDS011;5026;51.494;11.974;2023-09-30T08:04:30;7.95;;;3.00;;
9970;SDS011;5026;51.494;11.974;2023-09-30T08:06:57;8.32;;;3.33;;
9970;SDS011;5026;51.494;11.974;2023-09-30T08:09:24;9.40;;;3.10;;
9970;SDS011;5026;51.494;11.974;2023-09-30T08:11:52;7.85;;;2.97;;
9970;SDS011;5026;51.494;11.974;2023-09-30T08:14:21;6.75;;;2.92;;
9970;SDS011;5026;51.494;11.974;2023-09-30T08:16:49;9.55;;;3.40;;
9970;SDS011;5026;51.494;11.974;2023-09-30T08:19:16;5.40;;;3.15;;
9970;SDS011;5026;51.494;11.974;2023-09-30T08:21:45;8.25;;;3.10;;
9970;SDS011;5026;51.494;11.974;2023-09-30T08:24:12;7.68;;;2.95;;
9970;SDS011;5026;51.494;11.974;2023-09-30T08:26:39;9.85;;;2.85;;
9970;SDS011;5026;51.494;11.974;2023-09-30T08:29:06;9.85;;;3.20;;
9970;SDS011;5026;51.494;11.974;2023-09-30T08:31:33;8.77;;;2.65;;
9970;SDS011;5026;51.494;11.974;2023-09-30T08:34:01;10.23;;;3.63;;
9970;SDS011;5026;51.494;11.974;2023-09-30T08:36:29;7.85;;;2.95;;
9970;SDS011;5026;51.494;11.974;2023-09-30T08:38:57;8.57;;;2.88;;
9970;SDS011;5026;51.494;11.974;2023-09-30T08:41:29;9.02;;;2.80;;
9970;SDS011;5026;51.494;11.974;2023-09-30T08:43:59;5.60;;;2.67;;
9970;SDS011;5026;51.494;11.974;2023-09-30T08:46:28;7.93;;;3.03;;
9970;SDS011;5026;51.494;11.974;2023-09-30T08:48:58;7.70;;;2.88;;
9970;SDS011;5026;51.494;11.974;2023-09-30T08:51:29;5.60;;;2.60;;
9970;SDS011;5026;51.494;11.974;2023-09-30T08:53:57;8.43;;;2.83;;
9970;SDS011;5026;51.494;11.974;2023-09-30T08:56:26;7.47;;;2.50;;
9970;SDS011;5026;51.494;11.974;2023-09-30T08:58:55;7.50;;;2.90;;
9970;SDS011;5026;51.494;11.974;2023-09-30T09:01:24;8.23;;;2.63;;
9970;SDS011;5026;51.494;11.974;2023-09-30T09:03:51;5.55;;;2.50;;
9970;SDS011;5026;51.494;11.974;2023-09-30T09:06:20;5.80;;;2.92;;
9970;SDS011;5026;51.494;11.974;2023-09-30T09:08:47;6.38;;;2.72;;
9970;SDS011;5026;51.494;11.974;2023-09-30T09:11:14;7.35;;;2.88;;
9970;SDS011;5026;51.494;11.974;2023-09-30T09:13:45;9.20;;;2.95;;
9970;SDS011;5026;51.494;11.974;2023-09-30T09:16:14;10.55;;;2.55;;
9970;SDS011;5026;51.494;11.974;2023-09-30T09:18:42;9.85;;;3.25;;
9970;SDS011;5026;51.494;11.974;2023-09-30T09:21:10;9.52;;;2.47;;
9970;SDS011;5026;51.494;11.974;2023-09-30T09:23:43;5.40;;;2.58;;
9970;SDS011;5026;51.494;11.974;2023-09-30T09:26:10;10.85;;;3.38;;
9970;SDS011;5026;51.494;11.974;2023-09-30T09:28:39;9.82;;;3.08;;
9970;SDS011;5026;51.494;11.974;2023-09-30T09:31:23;8.75;;;3.28;;
9970;SDS011;5026;51.494;11.974;2023-09-30T09:33:52;6.90;;;2.85;;
9970;SDS011;5026;51.494;11.974;2023-09-30T09:36:19;6.03;;;2.63;;
9970;SDS011;5026;51.494;11.974;2023-09-30T09:38:48;9.10;;;2.75;;
9970;SDS011;5026;51.494;11.974;2023-09-30T09:41:18;7.68;;;2.70;;
9970;SDS011;5026;51.494;11.974;2023-09-30T09:43:47;8.07;;;2.92;;
9970;SDS011;5026;51.494;11.974;2023-09-30T09:46:15;8.18;;;2.60;;
9970;SDS011;5026;51.494;11.974;2023-09-30T09:48:44;7.55;;;2.67;;
9970;SDS011;5026;51.494;11.974;2023-09-30T09:51:12;10.07;;;2.70;;
9970;SDS011;5026;51.494;11.974;2023-09-30T09:53:40;6.88;;;3.10;;
9970;SDS011;5026;51.494;11.974;2023-09-30T09:56:10;8.80;;;2.40;;
9970;SDS011;5026;51.494;11.974;2023-09-30T09:58:39;9.48;;;2.47;;
9970;SDS011;5026;51.494;11.974;2023-09-30T10:01:09;9.90;;;2.40;;
9970;SDS011;5026;51.494;11.974;2023-09-30T10:03:37;8.05;;;2.05;;
9970;SDS011;5026;51.494;11.974;2023-09-30T10:06:04;8.90;;;2.30;;
9970;SDS011;5026;51.494;11.974;2023-09-30T10:08:35;8.02;;;2.47;;
9970;SDS011;5026;51.494;11.974;2023-09-30T10:11:05;5.68;;;1.95;;
9970;SDS011;5026;51.494;11.974;2023-09-30T10:13:52;9.00;;;2.28;;
9970;SDS011;5026;51.494;11.974;2023-09-30T10:19:19;6.22;;;2.25;;
9970;SDS011;5026;51.494;11.974;2023-09-30T10:24:47;5.00;;;2.00;;
9970;SDS011;5026;51.494;11.974;2023-09-30T10:27:30;8.48;;;2.50;;
9970;SDS011;5026;51.494;11.974;2023-09-30T10:29:59;7.35;;;2.25;;
9970;SDS011;5026;51.494;11.974;2023-09-30T10:35:46;8.75;;;1.98;;
9970;SDS011;5026;51.494;11.974;2023-09-30T10:41:08;5.40;;;2.22;;
9970;SDS011;5026;51.494;11.974;2023-09-30T10:43:37;6.28;;;1.95;;
9970;SDS011;5026;51.494;11.974;2023-09-30T10:46:10;5.93;;;2.17;;
9970;SDS011;5026;51.494;11.974;2023-09-30T10:48:56;9.68;;;2.13;;
9970;SDS011;5026;51.494;11.974;2023-09-30T10:51:23;8.90;;;2.33;;
9970;SDS011;5026;51.494;11.974;2023-09-30T10:53:51;5.60;;;1.90;;
9970;SDS011;5026;51.494;11.974;2023-09-30T10:56:22;5.00;;;1.52;;
9970;SDS011;5026;51.494;11.974;2023-09-30T10:58:50;6.72;;;2.28;;
9970;SDS011;5026;51.494;11.974;2023-09-30T11:01:19;7.95;;;2.38;;
9970;SDS011;5026;51.494;11.974;2023-09-30T11:03:47;7.53;;;2.40;;
9970;SDS011;5026;51.494;11.974;2023-09-30T11:06:17;5.90;;;2.10;;
9970;SDS011;5026;51.494;11.974;2023-09-30T11:08:46;8.45;;;1.95;;
9970;SDS011;5026;51.494;11.974;2023-09-30T11:11:18;5.70;;;1.90;;
9970;SDS011;5026;51.494;11.974;2023-09-30T11:13:46;8.68;;;2.33;;
9970;SDS011;5026;51.494;11.974;2023-09-30T11:16:12;5.38;;;1.98;;
9970;SDS011;5026;51.494;11.974;2023-09-30T11:18:41;6.32;;;2.13;;
9970;SDS011;5026;51.494;11.974;2023-09-30T11:21:09;10.95;;;2.42;;
9970;SDS011;5026;51.494;11.974;2023-09-30T11:23:38;6.53;;;2.50;;
9970;SDS011;5026;51.494;11.974;2023-09-30T11:26:06;9.23;;;2.45;;
9970;SDS011;5026;51.494;11.974;2023-09-30T11:28:35;4.60;;;1.95;;
9970;SDS011;5026;51.494;11.974;2023-09-30T11:31:07;8.20;;;2.85;;
9970;SDS011;5026;51.494;11.974;2023-09-30T11:36:26;4.95;;;1.75;;
9970;SDS011;5026;51.494;11.974;2023-09-30T11:38:52;4.63;;;1.95;;
9970;SDS011;5026;51.494;11.974;2023-09-30T11:41:19;10.32;;;2.20;;
9970;SDS011;5026;51.494;11.974;2023-09-30T11:46:46;13.65;;;2.30;;
9970;SDS011;5026;51.494;11.974;2023-09-30T11:49:27;6.97;;;1.90;;
9970;SDS011;5026;51.494;11.974;2023-09-30T11:51:55;8.63;;;2.28;;
9970;SDS011;5026;51.494;11.974;2023-09-30T11:54:27;7.28;;;2.15;;
9970;SDS011;5026;51.494;11.974;2023-09-30T11:56:55;8.30;;;1.83;;
9970;SDS011;5026;51.494;11.974;2023-09-30T11:59:23;4.55;;;1.60;;
9970;SDS011;5026;51.494;11.974;2023-09-30T12:01:50;4.10;;;1.77;;
9970;SDS011;5026;51.494;11.974;2023-09-30T12:04:18;8.32;;;2.10;;
9970;SDS011;5026;51.494;11.974;2023-09-30T12:06:46;5.43;;;1.88;;
9970;SDS011;5026;51.494;11.974;2023-09-30T12:09:14;7.95;;;2.22;;
9970;SDS011;5026;51.494;11.974;2023-09-30T12:11:42;5.72;;;2.35;;
9970;SDS011;5026;51.494;11.974;2023-09-30T12:14:09;6.15;;;1.90;;
9970;SDS011;5026;51.494;11.974;2023-09-30T12:16:37;10.63;;;2.20;;
9970;SDS011;5026;51.494;11.974;2023-09-30T12:19:05;4.00;;;1.60;;
9970;SDS011;5026;51.494;11.974;2023-09-30T12:21:32;5.13;;;1.80;;
9970;SDS011;5026;51.494;11.974;2023-09-30T12:24:00;6.50;;;1.83;;
9970;SDS011;5026;51.494;11.974;2023-09-30T12:26:28;5.03;;;1.77;;
9970;SDS011;5026;51.494;11.974;2023-09-30T12:28:55;6.80;;;1.98;;
9970;SDS011;5026;51.494;11.974;2023-09-30T12:31:22;3.03;;;1.80;;
9970;SDS011;5026;51.494;11.974;2023-09-30T12:33:49;5.22;;;1.80;;
9970;SDS011;5026;51.494;11.974;2023-09-30T12:36:17;3.53;;;1.60;;
9970;SDS011;5026;51.494;11.974;2023-09-30T12:38:44;6.47;;;2.17;;
9970;SDS011;5026;51.494;11.974;2023-09-30T12:41:13;6.82;;;2.05;;
9970;SDS011;5026;51.494;11.974;2023-09-30T12:43:46;5.95;;;1.90;;
9970;SDS011;5026;51.494;11.974;2023-09-30T12:46:15;4.63;;;1.83;;
9970;SDS011;5026;51.494;11.974;2023-09-30T12:48:43;5.47;;;1.73;;
9970;SDS011;5026;51.494;11.974;2023-09-30T12:51:10;5.05;;;1.92;;
9970;SDS011;5026;51.494;11.974;2023-09-30T12:53:37;3.28;;;1.88;;
9970;SDS011;5026;51.494;11.974;2023-09-30T12:56:04;8.90;;;1.90;;
9970;SDS011;5026;51.494;11.974;2023-09-30T12:58:33;2.90;;;1.58;;
9970;SDS011;5026;51.494;11.974;2023-09-30T13:01:00;4.47;;;1.60;;
9970;SDS011;5026;51.494;11.974;2023-09-30T13:03:27;4.68;;;1.85;;
9970;SDS011;5026;51.494;11.974;2023-09-30T13:05:54;5.30;;;1.90;;
9970;SDS011;5026;51.494;11.974;2023-09-30T13:08:21;5.68;;;1.67;;
9970;SDS011;5026;51.494;11.974;2023-09-30T13:10:49;6.75;;;1.70;;
9970;SDS011;5026;51.494;11.974;2023-09-30T13:13:17;6.60;;;1.80;;
9970;SDS011;5026;51.494;11.974;2023-09-30T13:15:45;4.88;;;1.52;;
9970;SDS011;5026;51.494;11.974;2023-09-30T13:18:12;5.43;;;1.83;;
9970;SDS011;5026;51.494;11.974;2023-09-30T13:20:43;4.47;;;1.75;;
9970;SDS011;5026;51.494;11.974;2023-09-30T13:23:09;4.78;;;1.60;;
9970;SDS011;5026;51.494;11.974;2023-09-30T13:25:36;7.68;;;1.80;;
9970;SDS011;5026;51.494;11.974;2023-09-30T13:28:03;3.83;;;1.70;;
9970;SDS011;5026;51.494;11.974;2023-09-30T13:30:30;4.03;;;1.50;;
9970;SDS011;5026;51.494;11.974;2023-09-30T13:32:59;6.88;;;1.73;;
9970;SDS011;5026;51.494;11.974;2023-09-30T13:35:26;6.00;;;1.38;;
9970;SDS011;5026;51.494;11.974;2023-09-30T13:37:53;6.80;;;1.73;;
9970;SDS011;5026;51.494;11.974;2023-09-30T13:40:19;6.10;;;1.70;;
9970;SDS011;5026;51.494;11.974;2023-09-30T13:42:46;6.43;;;1.65;;
9970;SDS011;5026;51.494;11.974;2023-09-30T13:45:14;4.60;;;1.52;;
9970;SDS011;5026;51.494;11.974;2023-09-30T13:47:42;5.82;;;1.70;;
9970;SDS011;5026;51.494;11.974;2023-09-30T13:50:10;7.43;;;1.77;;
9970;SDS011;5026;51.494;11.974;2023-09-30T13:52:37;5.72;;;1.55;;
9970;SDS011;5026;51.494;11.974;2023-09-30T13:55:04;4.53;;;1.50;;
9970;SDS011;5026;51.494;11.974;2023-09-30T13:57:32;5.82;;;1.90;;
9970;SDS011;5026;51.494;11.974;2023-09-30T14:00:00;7.25;;;2.00;;
9970;SDS011;5026;51.494;11.974;2023-09-30T14:02:27;6.20;;;1.70;;
9970;SDS011;5026;51.494;11.974;2023-09-30T14:04:54;5.45;;;2.00;;
9970;SDS011;5026;51.494;11.974;2023-09-30T14:07:22;5.18;;;2.05;;
9970;SDS011;5026;51.494;11.974;2023-09-30T14:09:49;5.00;;;1.83;;
9970;SDS011;5026;51.494;11.974;2023-09-30T14:12:17;6.80;;;1.90;;
9970;SDS011;5026;51.494;11.974;2023-09-30T14:14:44;5.07;;;1.90;;
9970;SDS011;5026;51.494;11.974;2023-09-30T14:17:11;3.63;;;2.30;;
9970;SDS011;5026;51.494;11.974;2023-09-30T14:19:40;3.50;;;1.33;;
9970;SDS011;5026;51.494;11.974;2023-09-30T14:22:07;6.88;;;2.05;;
9970;SDS011;5026;51.494;11.974;2023-09-30T14:24:35;4.57;;;1.67;;
9970;SDS011;5026;51.494;11.974;2023-09-30T14:27:02;7.25;;;2.15;;
9970;SDS011;5026;51.494;11.974;2023-09-30T14:29:30;5.07;;;1.13;;
9970;SDS011;5026;51.494;11.974;2023-09-30T14:31:57;4.28;;;1.58;;
9970;SDS011;5026;51.494;11.974;2023-09-30T14:34:24;3.97;;;1.95;;
9970;SDS011;5026;51.494;11.974;2023-09-30T14:36:51;3.72;;;1.45;;
9970;SDS011;5026;51.494;11.974;2023-09-30T14:39:18;3.70;;;1.30;;
9970;SDS011;5026;51.494;11.974;2023-09-30T14:41:47;4.20;;;1.20;;
9970;SDS011;5026;51.494;11.974;2023-09-30T14:44:14;3.75;;;1.25;;
9970;SDS011;5026;51.494;11.974;2023-09-30T14:46:42;6.95;;;1.70;;
9970;SDS011;5026;51.494;11.974;2023-09-30T14:49:09;4.70;;;1.85;;
9970;SDS011;5026;51.494;11.974;2023-09-30T14:51:36;6.70;;;1.65;;
9970;SDS011;5026;51.494;11.974;2023-09-30T14:54:03;4.00;;;1.55;;
9970;SDS011;5026;51.494;11.974;2023-09-30T14:56:30;6.95;;;1.52;;
9970;SDS011;5026;51.494;11.974;2023-09-30T14:58:59;6.15;;;1.60;;
9970;SDS011;5026;51.494;11.974;2023-09-30T15:01:26;4.93;;;1.65;;
9970;SDS011;5026;51.494;11.974;2023-09-30T15:03:54;8.05;;;1.70;;
9970;SDS011;5026;51.494;11.974;2023-09-30T15:06:21;8.40;;;1.75;;
9970;SDS011;5026;51.494;11.974;2023-09-30T15:08:49;4.47;;;1.48;;
9970;SDS011;5026;51.494;11.974;2023-09-30T15:11:16;6.07;;;1.48;;
9970;SDS011;5026;51.494;11.974;2023-09-30T15:13:43;4.47;;;1.50;;
9970;SDS011;5026;51.494;11.974;2023-09-30T15:16:16;6.93;;;1.88;;
9970;SDS011;5026;51.494;11.974;2023-09-30T15:18:44;4.93;;;1.88;;
9970;SDS011;5026;51.494;11.974;2023-09-30T15:21:12;4.03;;;1.73;;